DLH8LJ EDDS-EDDF
Flight info
| Callsign | DLH8LJ |
|---|---|
| Flight time | 0h 23m |
| Altitude | 22000 |
| Route | ETASA4B ETASA T163 SPESA SPESA5B |
| Aircraft | A321/M-SDE3FGHIRWY/LB1 |
Departure
| Time | 2026-05-06 12:21 |
|---|---|
| Airport | Stuttgart Airport (EDDS) |
Arrival
| Time | 2026-05-06 12:44 |
|---|---|
| Airport | Frankfurt Main Airport (EDDF) |
| Time | Latitude | Longitude | Altitude | Speed | Heading |
|---|---|---|---|---|---|
| 2026-05-06 11:42 | 48.68893 | 9.19430 | 1315 ft | 0 kts | 344° |
| 2026-05-06 12:08 | 48.68873 | 9.19439 | 1315 ft | 4 kts | 344° |
| 2026-05-06 12:08 | 48.68851 | 9.19448 | 1314 ft | 3 kts | 345° |
| 2026-05-06 12:08 | 48.68828 | 9.19450 | 1313 ft | 4 kts | 34° |
| 2026-05-06 12:09 | 48.68816 | 9.19428 | 1313 ft | 4 kts | 71° |
| 2026-05-06 12:09 | 48.68812 | 9.19412 | 1313 ft | 0 kts | 74° |
| 2026-05-06 12:14 | 48.68815 | 9.19424 | 1313 ft | 3 kts | 74° |
| 2026-05-06 12:14 | 48.68826 | 9.19485 | 1312 ft | 8 kts | 74° |
| 2026-05-06 12:14 | 48.68844 | 9.19582 | 1310 ft | 11 kts | 74° |
| 2026-05-06 12:15 | 48.68868 | 9.19711 | 1307 ft | 14 kts | 74° |
| 2026-05-06 12:15 | 48.68898 | 9.19874 | 1303 ft | 12 kts | 75° |
| 2026-05-06 12:15 | 48.68897 | 9.19886 | 1302 ft | 1 kts | 108° |
| 2026-05-06 12:15 | 48.68883 | 9.19884 | 1302 ft | 5 kts | 186° |
| 2026-05-06 12:16 | 48.68823 | 9.19918 | 1297 ft | 13 kts | 127° |
| 2026-05-06 12:16 | 48.68845 | 9.20067 | 1294 ft | 17 kts | 73° |
| 2026-05-06 12:16 | 48.68880 | 9.20254 | 1290 ft | 20 kts | 75° |
| 2026-05-06 12:16 | 48.68923 | 9.20478 | 1285 ft | 24 kts | 73° |
| 2026-05-06 12:17 | 48.68972 | 9.20734 | 1277 ft | 27 kts | 74° |
| 2026-05-06 12:17 | 48.69026 | 9.21026 | 1271 ft | 30 kts | 73° |
| 2026-05-06 12:17 | 48.69085 | 9.21337 | 1263 ft | 32 kts | 75° |
| 2026-05-06 12:17 | 48.69148 | 9.21675 | 1255 ft | 34 kts | 74° |
| 2026-05-06 12:18 | 48.69215 | 9.22031 | 1251 ft | 36 kts | 74° |
| 2026-05-06 12:18 | 48.69286 | 9.22405 | 1237 ft | 38 kts | 74° |
| 2026-05-06 12:18 | 48.69362 | 9.22794 | 1230 ft | 39 kts | 73° |
| 2026-05-06 12:18 | 48.69436 | 9.23197 | 1222 ft | 40 kts | 75° |
| 2026-05-06 12:19 | 48.69514 | 9.23609 | 1213 ft | 41 kts | 73° |
| 2026-05-06 12:19 | 48.69567 | 9.23877 | 1208 ft | 23 kts | 74° |
| 2026-05-06 12:19 | 48.69610 | 9.24124 | 1201 ft | 12 kts | 83° |
| 2026-05-06 12:19 | 48.69568 | 9.24265 | 1195 ft | 18 kts | 130° |
| 2026-05-06 12:20 | 48.69443 | 9.24331 | 1190 ft | 19 kts | 182° |
| 2026-05-06 12:20 | 48.69369 | 9.24205 | 1193 ft | 16 kts | 253° |
| 2026-05-06 12:20 | 48.69338 | 9.24046 | 1196 ft | 16 kts | 254° |
| 2026-05-06 12:20 | 48.69277 | 9.23723 | 1203 ft | 62 kts | 254° |
| 2026-05-06 12:21 | 48.69094 | 9.22753 | 1222 ft | 130 kts | 254° |
| 2026-05-06 12:21 | 48.68799 | 9.21197 | 1422 ft | 166 kts | 253° |
| 2026-05-06 12:21 | 48.68504 | 9.19519 | 2185 ft | 164 kts | 255° |
| 2026-05-06 12:21 | 48.68188 | 9.17845 | 2917 ft | 172 kts | 254° |
| 2026-05-06 12:22 | 48.67825 | 9.16006 | 3324 ft | 193 kts | 252° |
| 2026-05-06 12:22 | 48.67410 | 9.13943 | 3628 ft | 217 kts | 252° |
| 2026-05-06 12:22 | 48.67003 | 9.11640 | 4086 ft | 233 kts | 263° |
| 2026-05-06 12:22 | 48.67348 | 9.09246 | 4663 ft | 243 kts | 299° |
| 2026-05-06 12:23 | 48.68521 | 9.07279 | 5087 ft | 265 kts | 325° |
| 2026-05-06 12:23 | 48.70289 | 9.06350 | 5880 ft | 276 kts | 355° |
| 2026-05-06 12:23 | 48.72228 | 9.06452 | 6759 ft | 282 kts | 3° |
| 2026-05-06 12:23 | 48.74201 | 9.06672 | 7722 ft | 282 kts | 4° |
| 2026-05-06 12:24 | 48.76073 | 9.06914 | 9200 ft | 262 kts | 4° |
| 2026-05-06 12:24 | 48.77874 | 9.07153 | 10272 ft | 259 kts | 4° |
| 2026-05-06 12:24 | 48.79686 | 9.07385 | 11157 ft | 263 kts | 4° |
| 2026-05-06 12:24 | 48.81534 | 9.07613 | 11953 ft | 270 kts | 4° |
| 2026-05-06 12:25 | 48.83421 | 9.07845 | 12634 ft | 274 kts | 4° |
| 2026-05-06 12:25 | 48.85339 | 9.08076 | 13258 ft | 279 kts | 4° |
| 2026-05-06 12:25 | 48.87259 | 9.08307 | 13842 ft | 283 kts | 4° |
| 2026-05-06 12:25 | 48.89284 | 9.08554 | 14083 ft | 303 kts | 4° |
| 2026-05-06 12:26 | 48.91460 | 9.08852 | 14210 ft | 325 kts | 5° |
| 2026-05-06 12:26 | 48.93783 | 9.09184 | 14339 ft | 345 kts | 5° |
| 2026-05-06 12:26 | 48.96250 | 9.09544 | 14464 ft | 365 kts | 5° |
| 2026-05-06 12:26 | 48.98838 | 9.09926 | 14591 ft | 383 kts | 5° |
| 2026-05-06 12:27 | 49.01542 | 9.10320 | 14856 ft | 394 kts | 5° |
| 2026-05-06 12:27 | 49.04289 | 9.10715 | 15345 ft | 399 kts | 5° |
| 2026-05-06 12:27 | 49.07075 | 9.11114 | 15919 ft | 403 kts | 5° |
| 2026-05-06 12:27 | 49.09878 | 9.11521 | 16472 ft | 407 kts | 5° |
| 2026-05-06 12:28 | 49.12676 | 9.11926 | 16989 ft | 410 kts | 5° |
| 2026-05-06 12:28 | 49.15527 | 9.12337 | 17499 ft | 413 kts | 5° |
| 2026-05-06 12:28 | 49.18405 | 9.12692 | 17754 ft | 415 kts | 360° |
| 2026-05-06 12:28 | 49.21319 | 9.12586 | 17809 ft | 425 kts | 357° |
| 2026-05-06 12:29 | 49.24322 | 9.12412 | 17806 ft | 438 kts | 356° |
| 2026-05-06 12:29 | 49.26351 | 9.12283 | 17798 ft | 440 kts | 356° |
| 2026-05-06 12:29 | 49.29420 | 9.12073 | 17789 ft | 442 kts | 356° |
| 2026-05-06 12:29 | 49.32487 | 9.11858 | 17802 ft | 442 kts | 356° |
| 2026-05-06 12:30 | 49.36561 | 9.11586 | 17792 ft | 442 kts | 356° |
| 2026-05-06 12:30 | 49.39632 | 9.11390 | 17796 ft | 440 kts | 356° |
| 2026-05-06 12:30 | 49.42619 | 9.11202 | 17752 ft | 420 kts | 356° |
| 2026-05-06 12:30 | 49.44580 | 9.11078 | 17159 ft | 418 kts | 356° |
| 2026-05-06 12:31 | 49.47527 | 9.10891 | 15944 ft | 427 kts | 356° |
| 2026-05-06 12:31 | 49.50434 | 9.10710 | 15489 ft | 416 kts | 356° |
| 2026-05-06 12:31 | 49.53297 | 9.10532 | 14936 ft | 408 kts | 356° |
| 2026-05-06 12:31 | 49.56111 | 9.10353 | 14355 ft | 402 kts | 356° |
| 2026-05-06 12:32 | 49.58882 | 9.10173 | 13781 ft | 396 kts | 356° |
| 2026-05-06 12:32 | 49.61616 | 9.09995 | 13139 ft | 390 kts | 356° |
| 2026-05-06 12:32 | 49.64305 | 9.09823 | 12547 ft | 383 kts | 356° |
| 2026-05-06 12:32 | 49.66950 | 9.09656 | 11952 ft | 377 kts | 356° |
| 2026-05-06 12:33 | 49.69557 | 9.09490 | 11354 ft | 372 kts | 355° |
| 2026-05-06 12:33 | 49.72129 | 9.09320 | 10801 ft | 366 kts | 355° |
| 2026-05-06 12:33 | 49.74632 | 9.09037 | 10155 ft | 360 kts | 347° |
| 2026-05-06 12:33 | 49.77052 | 9.08180 | 9817 ft | 349 kts | 344° |
| 2026-05-06 12:34 | 49.79327 | 9.07329 | 9699 ft | 332 kts | 344° |
| 2026-05-06 12:34 | 49.81521 | 9.06511 | 9567 ft | 317 kts | 344° |
| 2026-05-06 12:34 | 49.83625 | 9.05729 | 9433 ft | 305 kts | 344° |
| 2026-05-06 12:34 | 49.85649 | 9.04983 | 9253 ft | 294 kts | 344° |
| 2026-05-06 12:35 | 49.87627 | 9.04264 | 8896 ft | 290 kts | 344° |
| 2026-05-06 12:35 | 49.89596 | 9.03551 | 8479 ft | 289 kts | 344° |
| 2026-05-06 12:35 | 49.91546 | 9.02842 | 8074 ft | 287 kts | 344° |
| 2026-05-06 12:35 | 49.93489 | 9.02137 | 7676 ft | 286 kts | 344° |
| 2026-05-06 12:36 | 49.95420 | 9.01435 | 7297 ft | 284 kts | 343° |
| 2026-05-06 12:36 | 49.97343 | 9.00736 | 6875 ft | 282 kts | 344° |
| 2026-05-06 12:36 | 49.99246 | 9.00046 | 6255 ft | 280 kts | 344° |
| 2026-05-06 12:36 | 50.01107 | 8.99363 | 5620 ft | 277 kts | 344° |
| 2026-05-06 12:37 | 50.02958 | 8.98673 | 4991 ft | 275 kts | 343° |
| 2026-05-06 12:37 | 50.04809 | 8.97983 | 4359 ft | 272 kts | 344° |
| 2026-05-06 12:37 | 50.06603 | 8.97319 | 4052 ft | 258 kts | 344° |
| 2026-05-06 12:37 | 50.08308 | 8.96688 | 3987 ft | 245 kts | 345° |
| 2026-05-06 12:38 | 50.09851 | 8.95695 | 3994 ft | 236 kts | 319° |
| 2026-05-06 12:38 | 50.10889 | 8.93888 | 4007 ft | 214 kts | 296° |
| 2026-05-06 12:38 | 50.11354 | 8.91822 | 3989 ft | 192 kts | 275° |
| 2026-05-06 12:38 | 50.11325 | 8.89816 | 3992 ft | 184 kts | 256° |
| 2026-05-06 12:39 | 50.10929 | 8.87943 | 3997 ft | 182 kts | 248° |
| 2026-05-06 12:39 | 50.10496 | 8.86098 | 3964 ft | 178 kts | 249° |
| 2026-05-06 12:39 | 50.10086 | 8.84351 | 3809 ft | 169 kts | 248° |
| 2026-05-06 12:39 | 50.09686 | 8.82651 | 3588 ft | 166 kts | 248° |
| 2026-05-06 12:40 | 50.09308 | 8.81045 | 3385 ft | 162 kts | 248° |
| 2026-05-06 12:40 | 50.08921 | 8.79404 | 3171 ft | 158 kts | 248° |
| 2026-05-06 12:40 | 50.08543 | 8.77802 | 2964 ft | 157 kts | 248° |
| 2026-05-06 12:40 | 50.08169 | 8.76217 | 2757 ft | 155 kts | 247° |
| 2026-05-06 12:41 | 50.07798 | 8.74648 | 2543 ft | 152 kts | 249° |
| 2026-05-06 12:41 | 50.07445 | 8.73145 | 2352 ft | 147 kts | 250° |
| 2026-05-06 12:41 | 50.07238 | 8.71629 | 2224 ft | 141 kts | 263° |
| 2026-05-06 12:41 | 50.07213 | 8.70132 | 2057 ft | 137 kts | 261° |
| 2026-05-06 12:42 | 50.06962 | 8.68701 | 1867 ft | 137 kts | 244° |
| 2026-05-06 12:42 | 50.06595 | 8.67325 | 1651 ft | 138 kts | 245° |
| 2026-05-06 12:42 | 50.06259 | 8.65948 | 1438 ft | 134 kts | 245° |
| 2026-05-06 12:42 | 50.05936 | 8.64573 | 1251 ft | 136 kts | 245° |
| 2026-05-06 12:43 | 50.05603 | 8.63178 | 1078 ft | 138 kts | 245° |
| 2026-05-06 12:43 | 50.05251 | 8.61757 | 891 ft | 142 kts | 243° |
| 2026-05-06 12:43 | 50.04908 | 8.60350 | 671 ft | 136 kts | 244° |
| 2026-05-06 12:43 | 50.04584 | 8.58958 | 464 ft | 138 kts | 244° |
| 2026-05-06 12:44 | 50.04248 | 8.57598 | 366 ft | 123 kts | 248° |
| 2026-05-06 12:44 | 50.04015 | 8.56615 | 360 ft | 56 kts | 250° |
| 2026-05-06 12:44 | 50.04004 | 8.56279 | 353 ft | 29 kts | 279° |
| 2026-05-06 12:44 | 50.04033 | 8.56150 | 359 ft | 5 kts | 327° |
| 2026-05-06 12:45 | 50.04069 | 8.56136 | 356 ft | 5 kts | 6° |
| 2026-05-06 12:45 | 50.04099 | 8.56167 | 354 ft | 5 kts | 53° |
| 2026-05-06 12:45 | 50.04124 | 8.56268 | 355 ft | 8 kts | 70° |
| 2026-05-06 12:46 | 50.04151 | 8.56381 | 358 ft | 13 kts | 69° |
| 2026-05-06 12:46 | 50.04166 | 8.56440 | 357 ft | 13 kts | 69° |
| 2026-05-06 12:46 | 50.04195 | 8.56561 | 363 ft | 13 kts | 70° |
| 2026-05-06 12:46 | 50.04227 | 8.56698 | 364 ft | 13 kts | 70° |
| 2026-05-06 12:47 | 50.04280 | 8.56804 | 363 ft | 13 kts | 26° |
| 2026-05-06 12:47 | 50.04364 | 8.56834 | 363 ft | 14 kts | 11° |
| 2026-05-06 12:47 | 50.04464 | 8.56858 | 359 ft | 16 kts | 11° |
| 2026-05-06 12:47 | 50.04560 | 8.56894 | 359 ft | 17 kts | 13° |
| 2026-05-06 12:48 | 50.04631 | 8.56921 | 356 ft | 20 kts | 17° |
| 2026-05-06 12:48 | 50.04761 | 8.57010 | 361 ft | 21 kts | 25° |
| 2026-05-06 12:48 | 50.04816 | 8.57043 | 356 ft | 4 kts | 349° |
| 2026-05-06 12:48 | 50.04835 | 8.57007 | 358 ft | 5 kts | 294° |
| 2026-05-06 12:49 | 50.04851 | 8.56952 | 358 ft | 1 kts | 294° |
| 2026-05-06 12:49 | 50.04852 | 8.56947 | 359 ft | 0 kts | 294° |